Time;durP1;ratioP1;P1;durP2;ratioP2;P2;SDS_P1;SDS_P2;PMS_P1;PMS_P2;Temp;Humidity;BMP_temperature;BMP_pressure;BME280_temperature;BME280_humidity;BME280_pressure;Samples;Min_cycle;Max_cycle;Signal;HPM_P1;HPM_P2
2022/03/02 00:01:56;;;;;;;12.65;8.70;;;-0.70;99.90;;;;;;1819040;79;21103;-77
2022/03/02 00:04:24;;;;;;;15.40;9.18;;;-0.70;99.90;;;;;;1818510;79;21027;-77
2022/03/02 00:06:51;;;;;;;17.12;9.30;;;-0.70;99.90;;;;;;1817982;79;21040;-77
2022/03/02 00:09:18;;;;;;;21.37;10.20;;;-0.70;99.90;;;;;;1817331;79;21032;-76
2022/03/02 00:11:45;;;;;;;14.75;9.70;;;-0.80;99.90;;;;;;1817000;79;21048;-77
2022/03/02 00:14:13;;;;;;;14.73;8.80;;;-0.70;99.90;;;;;;1817825;79;21121;-76
2022/03/02 00:16:40;;;;;;;12.65;7.87;;;-0.70;99.90;;;;;;1818933;79;21064;-77
2022/03/02 00:19:08;;;;;;;14.65;8.75;;;-0.70;99.90;;;;;;1817733;79;21020;-78
2022/03/02 00:21:57;;;;;;;15.80;8.48;;;-0.70;99.90;;;;;;1816799;79;21084;-77
2022/03/02 00:24:24;;;;;;;15.15;8.05;;;-0.80;99.90;;;;;;1848605;77;21098;-75
2022/03/02 00:26:51;;;;;;;18.65;9.30;;;-0.80;99.90;;;;;;1848925;78;21043;-77
2022/03/02 00:29:20;;;;;;;16.37;9.28;;;-0.80;99.90;;;;;;1848868;78;21052;-77
2022/03/02 00:31:47;;;;;;;13.75;8.63;;;-0.80;99.90;;;;;;1848898;78;21282;-76
2022/03/02 00:34:16;;;;;;;18.75;9.10;;;-0.70;99.90;;;;;;1846212;78;21043;-77
2022/03/02 00:36:43;;;;;;;17.12;7.50;;;-0.80;99.90;;;;;;1846858;78;21135;-77
2022/03/02 00:39:12;;;;;;;17.37;9.53;;;-0.80;99.90;;;;;;1846836;78;21058;-77
2022/03/02 00:41:39;;;;;;;17.75;9.38;;;-0.70;99.90;;;;;;1846246;78;21045;-77
2022/03/02 00:44:08;;;;;;;16.02;9.38;;;-0.70;99.90;;;;;;1845944;78;21207;-77
2022/03/02 00:46:36;;;;;;;14.63;9.38;;;-0.70;99.90;;;;;;1845495;78;21054;-77
2022/03/02 00:49:03;;;;;;;30.52;11.20;;;-0.70;99.90;;;;;;1845408;78;21198;-77
2022/03/02 00:51:30;;;;;;;19.17;9.80;;;-0.70;99.90;;;;;;1847441;78;21136;-77
2022/03/02 00:53:58;;;;;;;20.25;10.88;;;-0.60;99.90;;;;;;1847387;78;21132;-78
2022/03/02 00:56:26;;;;;;;18.10;10.43;;;-0.60;99.90;;;;;;1810368;79;21094;-77
2022/03/02 00:58:53;;;;;;;22.30;10.00;;;-0.60;99.90;;;;;;1847547;78;21132;-77
2022/03/02 01:01:22;;;;;;;13.43;9.00;;;-0.60;99.90;;;;;;1847534;78;21458;-77
2022/03/02 01:03:49;;;;;;;14.73;9.68;;;-0.50;99.90;;;;;;1845365;77;21120;-75
2022/03/02 01:06:17;;;;;;;13.83;8.98;;;-0.40;99.90;;;;;;1845397;78;21540;-77
2022/03/02 01:08:45;;;;;;;18.62;10.15;;;-0.30;99.90;;;;;;1845485;77;21054;-77
2022/03/02 01:11:12;;;;;;;27.90;10.75;;;-0.30;99.90;;;;;;1847561;78;21031;-77
2022/03/02 01:13:39;;;;;;;21.45;10.23;;;-0.30;99.90;;;;;;1849812;77;21089;-77
2022/03/02 01:16:06;;;;;;;18.62;9.63;;;-0.40;99.90;;;;;;1813900;78;21046;-74
2022/03/02 01:18:34;;;;;;;15.70;9.33;;;-0.40;99.90;;;;;;1812329;78;21042;-75
2022/03/02 01:21:02;;;;;;;17.30;9.15;;;-0.40;99.90;;;;;;1810540;79;21540;-76
2022/03/02 01:23:29;;;;;;;12.80;8.60;;;-0.50;99.90;;;;;;1810468;79;21463;-76
2022/03/02 01:25:57;;;;;;;13.30;8.88;;;-0.60;99.90;;;;;;1810311;79;21054;-76
2022/03/02 01:28:24;;;;;;;12.90;8.48;;;-0.60;99.90;;;;;;1810348;79;21136;-76
2022/03/02 01:30:51;;;;;;;18.12;8.60;;;-0.60;99.90;;;;;;1810309;79;21054;-78
2022/03/02 01:33:19;;;;;;;11.05;8.30;;;-0.50;99.90;;;;;;1810286;79;21183;-76
2022/03/02 01:35:46;;;;;;;16.15;10.03;;;-0.50;99.90;;;;;;1810317;79;21054;-76
2022/03/02 01:38:13;;;;;;;14.83;9.05;;;-0.50;99.90;;;;;;1810370;79;21054;-76
2022/03/02 01:40:40;;;;;;;14.07;9.35;;;-0.60;99.90;;;;;;1810281;79;21124;-76
2022/03/02 01:43:08;;;;;;;14.10;9.23;;;-0.70;99.90;;;;;;1810344;79;21171;-78
2022/03/02 01:45:35;;;;;;;21.02;9.68;;;-0.60;99.90;;;;;;1810304;79;21140;-76
2022/03/02 01:48:03;;;;;;;21.75;10.13;;;-0.70;99.90;;;;;;1810244;79;21059;-76
2022/03/02 01:50:31;;;;;;;18.80;9.65;;;-0.60;99.90;;;;;;1810357;79;21553;-77
2022/03/02 01:52:58;;;;;;;15.88;10.03;;;-0.60;99.90;;;;;;1810222;79;21518;-75
2022/03/02 01:55:26;;;;;;;14.63;9.20;;;-0.60;99.90;;;;;;1810196;79;21055;-76
2022/03/02 01:57:53;;;;;;;16.90;9.23;;;-0.60;99.90;;;;;;1810267;79;21066;-76
2022/03/02 02:00:22;;;;;;;11.95;8.98;;;-0.60;99.90;;;;;;1810304;79;21537;-76
2022/03/02 02:02:50;;;;;;;17.55;9.90;;;-0.80;99.90;;;;;;1810250;79;21058;-78
2022/03/02 02:05:17;;;;;;;20.08;10.32;;;-0.90;99.90;;;;;;1810299;79;21070;-75
2022/03/02 02:07:44;;;;;;;14.43;9.43;;;-0.90;99.90;;;;;;1810373;79;21046;-76
2022/03/02 02:10:12;;;;;;;14.18;8.95;;;-0.90;99.90;;;;;;1810317;79;21058;-76
2022/03/02 02:12:39;;;;;;;18.65;10.43;;;-0.90;99.90;;;;;;1810251;79;21518;-76
2022/03/02 02:15:07;;;;;;;15.68;9.25;;;-0.90;99.90;;;;;;1810382;79;21097;-76
2022/03/02 02:17:34;;;;;;;14.75;9.35;;;-0.90;99.90;;;;;;1810382;79;21148;-75
2022/03/02 02:20:01;;;;;;;15.45;9.63;;;-1.00;99.90;;;;;;1810425;79;21129;-75
2022/03/02 02:22:28;;;;;;;15.75;10.38;;;-1.10;99.90;;;;;;1810472;79;21525;-77
2022/03/02 02:24:56;;;;;;;14.40;10.28;;;-1.20;99.90;;;;;;1810290;79;21128;-76
2022/03/02 02:27:23;;;;;;;23.60;11.20;;;-1.20;99.90;;;;;;1810327;79;21388;-76
2022/03/02 02:29:50;;;;;;;25.40;11.28;;;-1.30;99.90;;;;;;1810352;79;21129;-77
2022/03/02 02:32:18;;;;;;;30.88;11.65;;;-1.30;99.90;;;;;;1810319;79;21479;-76
2022/03/02 02:34:45;;;;;;;22.80;11.45;;;-1.40;99.90;;;;;;1810340;79;21058;-75
2022/03/02 02:37:13;;;;;;;16.37;11.20;;;-1.40;99.90;;;;;;1810366;79;21097;-76
2022/03/02 02:39:40;;;;;;;20.82;11.38;;;-1.40;99.90;;;;;;1789937;79;21047;-77
2022/03/02 02:42:08;;;;;;;17.98;10.58;;;-1.50;99.90;;;;;;1810450;79;21168;-76
2022/03/02 02:44:36;;;;;;;18.82;11.22;;;-1.50;99.90;;;;;;1810456;79;21066;-75
2022/03/02 02:47:03;;;;;;;17.70;10.98;;;-1.50;99.90;;;;;;1810291;79;21124;-76
2022/03/02 02:49:32;;;;;;;20.45;10.63;;;-1.50;99.90;;;;;;1810450;78;21144;-76
2022/03/02 02:51:59;;;;;;;23.00;10.82;;;-1.60;99.90;;;;;;1810267;78;21105;-77
2022/03/02 02:54:27;;;;;;;16.60;9.78;;;-1.50;99.90;;;;;;1810590;79;21152;-76
2022/03/02 02:56:56;;;;;;;19.75;11.12;;;-1.40;99.90;;;;;;1810410;79;21224;-76
2022/03/02 02:59:24;;;;;;;20.88;10.08;;;-1.40;99.90;;;;;;1810221;79;21055;-76
2022/03/02 03:01:51;;;;;;;18.00;9.98;;;-1.50;99.90;;;;;;1810486;79;21086;-76
2022/03/02 03:04:19;;;;;;;19.50;10.55;;;-1.60;99.90;;;;;;1810323;79;21102;-76
2022/03/02 03:06:46;;;;;;;17.05;10.40;;;-1.70;99.90;;;;;;1810474;79;21039;-76
2022/03/02 03:09:16;;;;;;;17.75;10.20;;;-1.70;99.90;;;;;;1810428;79;21117;-76
2022/03/02 03:11:42;;;;;;;17.45;10.08;;;-1.70;99.90;;;;;;1810782;78;21191;-77
2022/03/02 03:14:10;;;;;;;20.82;10.65;;;-1.70;99.90;;;;;;1812391;79;21043;-76
2022/03/02 03:16:38;;;;;;;20.72;10.58;;;-1.60;99.90;;;;;;1812499;79;21027;-77
2022/03/02 03:19:05;;;;;;;17.17;10.05;;;-1.70;99.90;;;;;;1813076;77;21070;-77
2022/03/02 03:21:52;;;;;;;16.30;10.60;;;-1.60;99.90;;;;;;1811165;79;21057;-76
2022/03/02 03:24:19;;;;;;;12.37;9.08;;;-1.60;99.90;;;;;;1873244;77;21104;-76
2022/03/02 03:26:46;;;;;;;15.20;9.45;;;-1.60;99.90;;;;;;1916098;75;21095;-77
2022/03/02 03:29:14;;;;;;;15.60;9.40;;;-1.70;99.90;;;;;;1877125;76;21100;-76
2022/03/02 03:31:41;;;;;;;16.37;10.13;;;-1.80;99.90;;;;;;1877172;76;21054;-76
2022/03/02 03:34:08;;;;;;;14.73;9.98;;;-1.90;99.90;;;;;;1916205;75;21023;-75
2022/03/02 03:36:36;;;;;;;15.50;9.80;;;-1.90;99.90;;;;;;1916320;75;21427;-76
2022/03/02 03:39:03;;;;;;;14.43;9.60;;;-1.80;99.90;;;;;;1877242;76;21015;-75
2022/03/02 03:41:30;;;;;;;17.32;9.48;;;-1.80;99.90;;;;;;1877300;76;21042;-78
2022/03/02 03:43:58;;;;;;;18.10;10.50;;;-1.70;99.90;;;;;;1877312;76;21202;-75
2022/03/02 03:46:25;;;;;;;14.58;9.63;;;-1.80;99.90;;;;;;1916336;75;21098;-76
2022/03/02 03:48:53;;;;;;;20.12;9.40;;;-1.80;99.90;;;;;;1907790;75;21056;-75
2022/03/02 03:51:20;;;;;;;15.43;9.78;;;-2.00;99.90;;;;;;1916310;75;21065;-78
2022/03/02 03:53:47;;;;;;;16.40;9.68;;;-2.00;99.90;;;;;;1896398;75;21088;-76
2022/03/02 03:56:16;;;;;;;17.40;10.28;;;-2.10;99.90;;;;;;1919157;75;21031;-77
2022/03/02 03:58:44;;;;;;;16.42;10.78;;;-2.10;99.90;;;;;;1919506;75;21443;-78
2022/03/02 04:01:11;;;;;;;16.10;10.03;;;-2.10;99.90;;;;;;1919404;75;21022;-78
2022/03/02 04:03:38;;;;;;;14.33;9.35;;;-1.90;99.90;;;;;;1919597;75;21181;-76
2022/03/02 04:06:25;;;;;;;13.35;8.98;;;-1.90;99.90;;;;;;1919111;74;20991;-75
2022/03/02 04:08:52;;;;;;;14.60;8.85;;;-1.90;99.90;;;;;;1886869;76;21085;-76
2022/03/02 04:11:19;;;;;;;12.75;9.00;;;-2.00;99.90;;;;;;1877188;75;21126;-75
2022/03/02 04:13:47;;;;;;;12.30;8.50;;;-2.10;99.90;;;;;;1881787;75;21085;-76
2022/03/02 04:16:14;;;;;;;18.25;9.73;;;-2.10;99.90;;;;;;1868061;75;21139;-76
2022/03/02 04:18:41;;;;;;;17.25;10.03;;;-2.00;99.90;;;;;;1891375;75;21155;-78
2022/03/02 04:21:09;;;;;;;20.48;9.80;;;-2.00;99.90;;;;;;1871889;75;21141;-78
2022/03/02 04:23:36;;;;;;;19.12;9.85;;;-2.00;99.90;;;;;;1863738;75;21065;-78
2022/03/02 04:26:03;;;;;;;15.85;9.95;;;-2.10;99.90;;;;;;1862198;75;21058;-76
2022/03/02 04:28:31;;;;;;;15.98;9.83;;;-2.10;99.90;;;;;;1866129;75;21103;-75
2022/03/02 04:30:58;;;;;;;18.40;10.72;;;-2.20;99.90;;;;;;1877704;75;21070;-76
2022/03/02 04:33:25;;;;;;;16.90;10.70;;;-2.20;99.90;;;;;;1855220;75;21489;-76
2022/03/02 04:35:53;;;;;;;18.15;10.13;;;-2.20;99.90;;;;;;1870579;75;21140;-77
2022/03/02 04:38:20;;;;;;;18.80;10.85;;;-2.20;99.90;;;;;;1885280;75;21571;-76
2022/03/02 04:40:47;;;;;;;19.52;11.35;;;-2.10;99.90;;;;;;1883656;75;21156;-75
2022/03/02 04:43:14;;;;;;;15.58;9.78;;;-2.10;99.90;;;;;;1854819;75;21446;-76
2022/03/02 04:45:42;;;;;;;19.42;10.72;;;-2.20;99.90;;;;;;1884491;75;21074;-75
2022/03/02 04:48:09;;;;;;;14.90;10.50;;;-2.10;99.90;;;;;;1872638;75;21443;-75
2022/03/02 04:50:36;;;;;;;21.02;10.48;;;-2.20;99.90;;;;;;1871299;75;21150;-76
2022/03/02 04:53:04;;;;;;;17.30;10.85;;;-2.40;99.90;;;;;;1854857;75;21066;-76
2022/03/02 04:55:31;;;;;;;18.02;10.85;;;-2.30;99.90;;;;;;1870748;75;21485;-76
2022/03/02 04:58:00;;;;;;;17.17;10.65;;;-2.20;99.90;;;;;;1857719;75;21147;-75
2022/03/02 05:00:32;;;;;;;21.27;11.03;;;-2.20;99.90;;;;;;1862168;75;21568;-75
2022/03/02 05:03:00;;;;;;;19.12;10.75;;;-2.30;99.90;;;;;;1870732;75;21089;-75
2022/03/02 05:05:28;;;;;;;24.72;11.50;;;-2.30;99.90;;;;;;1860338;75;21083;-76
2022/03/02 05:07:55;;;;;;;20.72;11.60;;;-2.40;99.90;;;;;;1891309;76;21058;-75
2022/03/02 05:10:24;;;;;;;21.55;11.97;;;-2.40;99.90;;;;;;1891382;75;21140;-76
2022/03/02 05:13:41;;;;;;;20.10;10.88;;;-2.40;99.90;;;;;;1859801;75;21131;-76
2022/03/02 05:16:09;;;;;;;22.85;10.78;;;-2.40;99.90;;;;;;1871105;75;21150;-78
2022/03/02 05:18:37;;;;;;;17.80;11.28;;;-2.30;99.90;;;;;;1854629;75;21069;-76
2022/03/02 05:21:05;;;;;;;19.95;11.70;;;-2.30;99.90;;;;;;1879854;75;21474;-76
2022/03/02 05:23:34;;;;;;;19.45;11.53;;;-2.40;99.90;;;;;;1893618;76;21552;-77
2022/03/02 05:26:01;;;;;;;17.50;11.43;;;-2.50;99.90;;;;;;1891134;76;21143;-76
2022/03/02 05:28:28;;;;;;;20.37;11.90;;;-2.40;99.90;;;;;;1889000;76;21047;-76
2022/03/02 05:30:56;;;;;;;20.55;11.65;;;-2.50;99.90;;;;;;1879951;75;21147;-76
2022/03/02 05:33:23;;;;;;;20.88;12.13;;;-2.50;99.90;;;;;;1854791;75;21070;-75
2022/03/02 05:35:52;;;;;;;20.75;11.88;;;-2.50;99.90;;;;;;1862212;75;21062;-76
2022/03/02 05:38:19;;;;;;;18.32;11.05;;;-2.50;99.90;;;;;;1880588;75;21069;-76
2022/03/02 05:40:46;;;;;;;25.85;11.73;;;-2.50;99.90;;;;;;1854606;75;21077;-77
2022/03/02 05:43:16;;;;;;;18.25;11.03;;;-2.50;99.90;;;;;;1863005;75;21065;-80
2022/03/02 05:45:43;;;;;;;24.30;12.05;;;-2.40;99.90;;;;;;1870984;75;21466;-79
2022/03/02 05:48:11;;;;;;;25.65;12.55;;;-2.40;99.90;;;;;;1880025;75;21066;-80
2022/03/02 05:50:38;;;;;;;15.50;10.32;;;-2.40;99.90;;;;;;1868050;75;21469;-79
2022/03/02 05:53:05;;;;;;;16.25;10.88;;;-2.40;99.90;;;;;;1873677;75;21085;-79
2022/03/02 05:55:33;;;;;;;18.80;11.03;;;-2.30;99.90;;;;;;1878153;75;21070;-80
2022/03/02 05:58:00;;;;;;;22.22;11.00;;;-2.40;99.90;;;;;;1880517;75;21127;-80
2022/03/02 06:00:27;;;;;;;16.75;11.20;;;-2.40;99.90;;;;;;1882517;75;21071;-79
2022/03/02 06:02:55;;;;;;;18.55;11.30;;;-2.40;99.90;;;;;;1866425;75;21077;-79
2022/03/02 06:05:22;;;;;;;18.20;12.50;;;-2.40;99.90;;;;;;1872871;75;21213;-79
2022/03/02 06:07:50;;;;;;;18.52;11.83;;;-2.40;99.90;;;;;;1881294;75;21078;-79
2022/03/02 06:10:19;;;;;;;18.02;11.28;;;-2.30;99.90;;;;;;1876188;75;21378;-78
2022/03/02 06:12:47;;;;;;;16.45;11.30;;;-2.30;99.90;;;;;;1865245;75;21107;-79
2022/03/02 06:15:15;;;;;;;22.10;12.65;;;-2.30;99.90;;;;;;1877715;75;21050;-79
2022/03/02 06:17:42;;;;;;;17.57;11.85;;;-2.20;99.90;;;;;;1882146;75;21074;-79
2022/03/02 06:20:10;;;;;;;24.10;13.00;;;-2.20;99.90;;;;;;1861023;75;21152;-80
2022/03/02 06:22:38;;;;;;;16.37;11.45;;;-2.10;99.90;;;;;;1875856;75;21153;-79
2022/03/02 06:25:07;;;;;;;27.02;13.95;;;-2.00;99.90;;;;;;1854751;75;21151;-80
2022/03/02 06:27:34;;;;;;;27.70;11.95;;;-2.00;99.90;;;;;;1859592;75;21151;-80
2022/03/02 06:30:02;;;;;;;21.65;13.20;;;-1.90;99.90;;;;;;1880497;75;21075;-81
2022/03/02 06:32:30;;;;;;;28.12;14.87;;;-1.80;99.90;;;;;;1893285;76;21155;-84
2022/03/02 06:35:01;;;;;;;21.73;13.75;;;-1.70;99.90;;;;;;1893263;76;21054;-79
2022/03/02 06:37:33;;;;;;;22.45;12.47;;;-1.60;99.90;;;;;;1879082;75;21070;-76
2022/03/02 06:39:57;;;;;;;24.82;12.20;;;-1.50;99.90;;;;;;1890232;76;21166;-75
2022/03/02 06:42:27;;;;;;;21.70;12.28;;;-1.50;99.90;;;;;;1886467;75;21144;-75
2022/03/02 06:45:02;;;;;;;31.12;12.78;;;-1.40;99.90;;;;;;1866338;75;21072;-75
2022/03/02 06:47:32;;;;;;;18.87;12.10;;;-1.30;99.90;;;;;;1879661;75;21081;-74
2022/03/02 06:50:08;;;;;;;22.25;12.05;;;-1.10;99.90;;;;;;1889360;76;21086;-76
2022/03/02 06:52:37;;;;;;;26.90;13.28;;;-1.00;99.90;;;;;;1867348;75;21139;-76
2022/03/02 06:55:09;;;;;;;20.20;12.15;;;-1.10;99.90;;;;;;1873952;75;21074;-76
2022/03/02 06:57:37;;;;;;;21.68;11.30;;;-0.90;99.90;;;;;;1864528;75;21050;-76
2022/03/02 07:00:16;;;;;;;33.25;12.13;;;-0.80;99.90;;;;;;1887104;76;21197;-75
2022/03/02 07:03:00;;;;;;;28.27;11.60;;;-0.60;99.90;;;;;;1889593;76;21177;-75
2022/03/02 07:05:27;;;;;;;19.30;10.82;;;-0.60;99.90;;;;;;1895401;76;21139;-74
2022/03/02 07:07:54;;;;;;;28.17;12.98;;;-0.60;99.90;;;;;;1891341;76;21065;-76
2022/03/02 07:10:22;;;;;;;17.37;11.50;;;-0.40;99.90;;;;;;1872468;75;21076;-77
2022/03/02 07:12:49;;;;;;;18.90;12.30;;;-0.40;99.90;;;;;;1862332;75;21108;-75
2022/03/02 07:15:16;;;;;;;24.35;12.00;;;-0.30;99.90;;;;;;1885565;75;21055;-78
2022/03/02 07:17:44;;;;;;;26.77;11.20;;;-0.20;99.90;;;;;;1883398;75;21122;-78
2022/03/02 07:20:12;;;;;;;18.20;11.03;;;-0.20;99.90;;;;;;1867951;75;21046;-77
2022/03/02 07:22:44;;;;;;;34.40;12.75;;;-0.10;99.90;;;;;;1873131;75;21135;-77
2022/03/02 07:25:17;;;;;;;16.97;11.55;;;-0.10;99.90;;;;;;1883658;75;21081;-77
2022/03/02 07:27:45;;;;;;;17.42;10.82;;;-0.20;99.90;;;;;;1878377;75;21079;-79
2022/03/02 07:30:12;;;;;;;19.00;12.85;;;-0.10;99.90;;;;;;1882900;75;21207;-78
2022/03/02 07:32:42;;;;;;;21.40;11.88;;;0.00;99.90;;;;;;1854684;75;21114;-77
2022/03/02 07:35:11;;;;;;;23.50;13.38;;;-0.10;99.90;;;;;;1865111;75;21190;-78
2022/03/02 07:37:39;;;;;;;24.90;12.13;;;-0.20;99.90;;;;;;1867327;75;21117;-77
2022/03/02 07:40:07;;;;;;;23.95;12.15;;;-0.10;99.90;;;;;;1893435;76;21226;-77
2022/03/02 07:42:34;;;;;;;24.50;12.18;;;0.00;99.90;;;;;;1884373;75;21127;-76
2022/03/02 07:45:03;;;;;;;18.52;11.73;;;0.00;99.90;;;;;;1885107;75;21552;-77
2022/03/02 07:47:30;;;;;;;19.32;11.95;;;0.10;99.90;;;;;;1864904;75;21093;-76
2022/03/02 07:49:58;;;;;;;21.70;12.33;;;0.30;99.90;;;;;;1863912;75;21127;-76
2022/03/02 07:52:29;;;;;;;21.65;12.05;;;0.30;99.90;;;;;;1834137;76;21325;-77
2022/03/02 07:55:00;;;;;;;21.97;11.93;;;0.30;99.90;;;;;;1864934;75;21150;-78
2022/03/02 07:57:30;;;;;;;26.97;12.35;;;0.40;99.90;;;;;;1854724;75;21143;-78
2022/03/02 07:59:59;;;;;;;17.98;11.18;;;0.50;99.90;;;;;;1868915;75;21114;-77
2022/03/02 08:02:27;;;;;;;18.50;11.77;;;0.90;99.90;;;;;;1876986;75;21609;-78
2022/03/02 08:04:56;;;;;;;16.40;11.45;;;1.10;99.90;;;;;;1872993;75;21073;-78
2022/03/02 08:07:23;;;;;;;20.12;12.47;;;1.20;99.90;;;;;;1885122;76;21059;-76
2022/03/02 08:09:52;;;;;;;23.65;15.23;;;1.50;99.90;;;;;;1890405;76;21148;-76
2022/03/02 08:12:23;;;;;;;16.73;12.15;;;1.30;99.90;;;;;;1889127;75;21148;-75
2022/03/02 08:14:51;;;;;;;20.97;10.93;;;1.40;99.90;;;;;;1890545;75;21446;-78
2022/03/02 08:17:20;;;;;;;16.32;10.48;;;1.50;99.90;;;;;;1890239;75;21074;-75
2022/03/02 08:19:51;;;;;;;20.80;10.85;;;1.50;99.90;;;;;;1895416;76;21077;-77
2022/03/02 08:22:19;;;;;;;15.53;10.35;;;1.50;99.90;;;;;;1864325;75;21089;-76
2022/03/02 08:25:07;;;;;;;19.52;10.60;;;1.70;99.90;;;;;;1873203;75;21054;-73
2022/03/02 08:27:35;;;;;;;19.07;10.58;;;1.80;99.90;;;;;;1854800;75;21155;-74
2022/03/02 08:30:06;;;;;;;22.07;13.78;;;2.00;99.90;;;;;;1859240;75;21050;-76
2022/03/02 08:32:39;;;;;;;21.55;11.83;;;1.90;99.90;;;;;;1890358;75;21176;-75
2022/03/02 08:35:06;;;;;;;20.70;11.50;;;1.50;99.90;;;;;;1876481;75;21212;-74
2022/03/02 08:37:38;;;;;;;18.32;11.78;;;1.40;99.90;;;;;;1867113;75;21462;-75
2022/03/02 08:40:06;;;;;;;19.62;10.98;;;1.60;99.90;;;;;;1891080;76;21499;-74
2022/03/02 08:42:36;;;;;;;27.35;11.83;;;1.80;99.90;;;;;;1880325;75;21069;-75
2022/03/02 08:45:04;;;;;;;22.15;12.18;;;2.10;99.90;;;;;;1874340;75;21113;-75
2022/03/02 08:47:32;;;;;;;20.52;11.78;;;2.20;99.90;;;;;;1879514;75;21478;-74
2022/03/02 08:50:01;;;;;;;22.80;11.60;;;2.40;99.90;;;;;;1874870;75;21400;-74
2022/03/02 08:52:31;;;;;;;21.12;11.33;;;2.50;99.90;;;;;;1882444;75;21058;-75
2022/03/02 08:55:00;;;;;;;;;;;2.70;99.90;;;;;;1860542;75;21120;-75
2022/03/02 08:57:27;;;;;;;26.82;11.95;;;3.10;99.90;;;;;;1885165;75;20369;-76
2022/03/02 08:59:55;;;;;;;16.95;11.30;;;3.50;99.90;;;;;;1877456;75;21152;-75
2022/03/02 09:02:29;;;;;;;19.23;10.82;;;3.60;99.90;;;;;;1879793;75;21492;-75
2022/03/02 09:04:58;;;;;;;19.52;11.70;;;3.60;99.90;;;;;;1866037;75;21054;-75
2022/03/02 09:07:28;;;;;;;29.42;10.50;;;3.80;99.90;;;;;;1882376;75;21147;-75
2022/03/02 09:09:56;;;;;;;18.45;11.10;;;3.40;99.90;;;;;;1873148;75;21078;-75
2022/03/02 09:12:23;;;;;;;21.82;10.72;;;3.60;99.90;;;;;;1891837;76;21073;-74
2022/03/02 09:14:51;;;;;;;16.23;9.60;;;3.80;99.90;;;;;;1880857;76;21450;-74
2022/03/02 09:17:25;;;;;;;16.90;9.43;;;4.10;99.90;;;;;;1869147;75;21191;-74
2022/03/02 09:19:53;;;;;;;23.40;9.90;;;3.70;99.90;;;;;;1877695;75;21497;-74
2022/03/02 09:22:22;;;;;;;14.83;10.05;;;3.60;99.90;;;;;;1873116;75;21065;-74
2022/03/02 09:24:50;;;;;;;20.27;9.18;;;3.70;99.90;;;;;;1827908;75;21560;-75
2022/03/02 09:27:18;;;;;;;15.55;9.18;;;3.90;99.90;;;;;;1889114;76;21070;-74
2022/03/02 09:29:47;;;;;;;15.70;8.53;;;3.90;99.90;;;;;;1894797;76;21465;-75
2022/03/02 09:32:15;;;;;;;20.48;8.70;;;3.70;99.90;;;;;;1889307;75;21188;-75
2022/03/02 09:34:50;;;;;;;17.25;9.00;;;4.00;99.90;;;;;;1860806;76;21074;-75
2022/03/02 09:37:17;;;;;;;21.42;8.25;;;4.40;99.90;;;;;;1874737;75;21089;-75
2022/03/02 09:39:44;;;;;;;17.57;9.43;;;4.70;99.90;;;;;;1883729;75;21078;-75
2022/03/02 09:42:15;;;;;;;14.10;7.90;;;4.60;99.90;;;;;;1882753;75;21221;-76
2022/03/02 09:44:46;;;;;;;27.10;8.53;;;4.80;99.90;;;;;;1880795;75;21085;-74
2022/03/02 09:47:19;;;;;;;13.32;8.13;;;5.00;99.90;;;;;;1891005;76;21143;-74
2022/03/02 09:49:55;;;;;;;13.90;8.83;;;4.90;99.90;;;;;;1871470;75;21123;-75
2022/03/02 09:52:25;;;;;;;16.52;9.00;;;5.20;99.90;;;;;;1830288;76;21079;-73
2022/03/02 09:54:57;;;;;;;12.90;8.23;;;5.10;99.90;;;;;;1867070;75;21184;-75
2022/03/02 09:57:24;;;;;;;13.65;7.83;;;5.70;99.90;;;;;;1860705;75;21441;-76
2022/03/02 09:59:56;;;;;;;11.05;7.15;;;6.00;99.90;;;;;;1860432;75;21135;-75
2022/03/02 10:02:32;;;;;;;11.70;7.67;;;6.20;99.90;;;;;;1878290;75;21077;-75
2022/03/02 10:05:02;;;;;;;17.55;7.85;;;6.50;99.90;;;;;;1876858;75;21148;-76
2022/03/02 10:07:30;;;;;;;13.83;9.00;;;6.70;99.90;;;;;;1892726;76;21039;-72
2022/03/02 10:10:17;;;;;;;12.93;7.90;;;6.40;99.90;;;;;;1866186;75;21066;-76
2022/03/02 10:12:46;;;;;;;13.25;8.00;;;6.60;99.90;;;;;;1866178;75;21058;-75
2022/03/02 10:15:14;;;;;;;14.90;7.30;;;6.70;99.90;;;;;;1893740;75;21161;-75
2022/03/02 10:17:43;;;;;;;13.10;7.95;;;6.60;99.90;;;;;;1859633;75;21068;-75
2022/03/02 10:20:19;;;;;;;15.38;8.55;;;6.60;99.90;;;;;;1854669;75;21053;-75
2022/03/02 10:23:14;;;;;;;18.12;7.70;;;6.70;99.90;;;;;;1884884;75;21078;-75
2022/03/02 10:25:48;;;;;;;15.32;7.80;;;6.90;99.90;;;;;;1891623;76;21505;-74
2022/03/02 10:28:19;;;;;;;13.60;7.80;;;7.50;99.90;;;;;;1867323;75;21152;-75
2022/03/02 10:30:46;;;;;;;15.53;7.15;;;7.10;99.90;;;;;;1859189;75;21461;-75
2022/03/02 10:33:21;;;;;;;14.75;7.72;;;7.60;99.90;;;;;;1883702;75;21201;-75
2022/03/02 10:35:53;;;;;;;11.35;7.45;;;8.40;99.90;;;;;;1878300;75;21454;-75
2022/03/02 10:38:49;;;;;;;11.78;7.75;;;8.90;98.20;;;;;;1874749;75;21081;-74
2022/03/02 10:41:20;;;;;;;16.65;7.70;;;8.50;98.70;;;;;;1883059;75;21074;-74
2022/03/02 10:44:05;;;;;;;14.55;8.65;;;7.50;98.90;;;;;;1880192;75;21136;-75
2022/03/02 10:46:33;;;;;;;12.45;7.60;;;7.00;99.90;;;;;;1859694;75;21276;-73
2022/03/02 10:49:03;;;;;;;12.05;7.05;;;6.80;99.90;;;;;;1883976;76;21081;-74
2022/03/02 10:51:35;;;;;;;15.72;8.03;;;6.70;99.90;;;;;;1886368;75;21026;-75
2022/03/02 10:54:05;;;;;;;16.87;8.40;;;7.10;99.90;;;;;;1860877;75;21061;-73
2022/03/02 10:56:38;;;;;;;18.07;8.03;;;7.40;99.90;;;;;;1846039;76;21529;-75
2022/03/02 10:59:04;;;;;;;11.80;7.97;;;7.50;99.90;;;;;;1863612;75;21176;-75
2022/03/02 11:01:31;;;;;;;14.23;8.60;;;7.60;99.90;;;;;;1876189;75;21138;-73
2022/03/02 11:03:59;;;;;;;17.85;8.45;;;8.20;99.90;;;;;;1872117;75;21477;-75
2022/03/02 11:06:27;;;;;;;16.32;9.23;;;8.60;99.90;;;;;;1859659;75;21143;-73
2022/03/02 11:09:00;;;;;;;13.10;8.35;;;8.30;99.50;;;;;;1865160;75;21069;-74
2022/03/02 11:11:27;;;;;;;17.98;8.90;;;7.70;99.90;;;;;;1854853;75;21075;-75
2022/03/02 11:13:55;;;;;;;16.97;8.93;;;7.40;99.90;;;;;;1873775;75;21065;-75
2022/03/02 11:16:24;;;;;;;20.50;9.40;;;7.30;99.90;;;;;;1858867;76;21137;-74
2022/03/02 11:18:55;;;;;;;12.58;8.58;;;7.40;99.90;;;;;;1892672;76;21262;-74
2022/03/02 11:21:31;;;;;;;12.40;8.35;;;7.10;99.90;;;;;;1892866;75;21516;-76
2022/03/02 11:24:02;;;;;;;17.20;8.80;;;7.30;99.90;;;;;;1873383;75;21049;-74
2022/03/02 11:26:31;;;;;;;13.95;8.73;;;7.50;99.90;;;;;;1856531;75;21092;-75
2022/03/02 11:29:02;;;;;;;13.28;8.88;;;7.40;99.90;;;;;;1887465;75;21147;-75
2022/03/02 11:31:32;;;;;;;16.00;8.68;;;7.50;99.90;;;;;;1886268;75;21073;-74
2022/03/02 11:34:19;;;;;;;20.50;9.55;;;7.40;99.90;;;;;;1882765;75;21148;-74
2022/03/02 11:36:50;;;;;;;16.05;8.53;;;7.50;99.90;;;;;;1872774;75;21081;-78
2022/03/02 11:39:19;;;;;;;14.73;9.03;;;7.90;99.90;;;;;;1887946;75;21124;-74
2022/03/02 11:41:47;;;;;;;12.00;8.88;;;7.90;99.90;;;;;;1874517;75;21112;-76
2022/03/02 11:44:37;;;;;;;28.45;13.00;;;7.90;99.90;;;;;;1891296;76;21450;-73
2022/03/02 11:47:09;;;;;;;16.65;9.88;;;8.00;99.90;;;;;;1877917;75;22483;-75
2022/03/02 11:49:41;;;;;;;20.97;9.33;;;8.10;99.70;;;;;;1872964;75;21143;-73
2022/03/02 11:52:11;;;;;;;19.52;9.58;;;8.20;99.90;;;;;;1889629;75;21151;-73
2022/03/02 11:54:47;;;;;;;18.50;8.35;;;8.70;99.10;;;;;;1875451;75;21067;-75
2022/03/02 11:57:16;;;;;;;20.05;9.73;;;8.80;98.60;;;;;;1876905;75;21228;-73
2022/03/02 11:59:44;;;;;;;14.00;9.08;;;8.50;98.30;;;;;;1872508;75;21200;-73
2022/03/02 12:02:13;;;;;;;15.95;8.93;;;8.60;97.70;;;;;;1890305;76;21077;-74
2022/03/02 12:04:40;;;;;;;17.50;8.68;;;8.70;97.80;;;;;;1885937;75;21113;-73
2022/03/02 12:07:09;;;;;;;16.95;9.35;;;9.20;97.20;;;;;;1885000;75;21065;-74
2022/03/02 12:09:38;;;;;;;14.38;8.13;;;9.30;96.70;;;;;;1872727;75;21140;-72
2022/03/02 12:12:11;;;;;;;12.93;8.83;;;9.50;96.30;;;;;;1878519;75;21155;-74
2022/03/02 12:14:46;;;;;;;16.67;8.95;;;9.40;95.90;;;;;;1886561;75;21069;-74
2022/03/02 12:17:17;;;;;;;19.57;9.18;;;8.90;96.50;;;;;;1888526;75;21081;-75
2022/03/02 12:19:46;;;;;;;13.85;8.25;;;9.10;96.90;;;;;;1885190;75;21077;-76
2022/03/02 12:22:13;;;;;;;18.40;8.83;;;9.40;96.60;;;;;;1850238;75;21143;-75
2022/03/02 12:24:40;;;;;;;15.23;8.70;;;9.70;95.90;;;;;;1884626;75;21073;-75
2022/03/02 12:27:10;;;;;;;15.72;8.98;;;9.80;96.00;;;;;;1879276;75;21042;-75
2022/03/02 12:29:39;;;;;;;11.85;8.40;;;9.70;96.40;;;;;;1882680;75;21147;-74
2022/03/02 12:32:08;;;;;;;13.22;8.93;;;9.90;96.10;;;;;;1855245;76;21069;-74
2022/03/02 12:34:38;;;;;;;13.78;8.65;;;10.30;94.80;;;;;;1888089;76;21148;-73
2022/03/02 12:37:06;;;;;;;15.20;9.63;;;10.20;95.10;;;;;;1868473;75;21076;-75
2022/03/02 12:39:37;;;;;;;13.78;9.28;;;10.00;94.60;;;;;;1871306;75;21082;-74
2022/03/02 12:42:07;;;;;;;12.43;8.08;;;10.50;94.60;;;;;;1850351;76;21502;-75
2022/03/02 12:44:41;;;;;;;14.40;8.63;;;10.50;94.00;;;;;;1887150;75;21456;-75
2022/03/02 12:47:11;;;;;;;17.05;8.90;;;10.50;93.70;;;;;;1875138;75;21176;-74